Minerva Astra — 9HDW7 — position and weather

sailwx.info

Track history (hours):
 
Tides and Currents Weather Stations Pressure Air Temp Water Temp Dewpoint Dewpoint Depression Visibility Wind Speed Wind Dir Waves Ship Positions

Minerva Astra

Last reported at 2015-Feb-26 23:14 UTC. Time now 2015-Feb-27 16:58 UTC.
Position N 59°30' E 024°58'.

Length 248 m; draft 8.4 m.

Type: Tanker. MMSI: 256703000.

Date/timePositionNaut miles runAvg speedWind from/ knotsBaromVisibWave heightAir tempDewpointWater temp
2015-Feb-26 23:14N 59°30' E 024°58'3 4.9
2015-Feb-26 22:32N 59°33' E 024°55'4 4.3
2015-Feb-26 21:33N 59°36' E 024°49'0 0.0
2015-Feb-26 20:33N 59°36' E 024°49'0 0.1
2015-Feb-26 19:33N 59°36' E 024°49'0 0.0
2015-Feb-26 18:30N 59°36' E 024°49'0 0.0
2015-Feb-26 17:33N 59°36' E 024°49'0 0.0
2015-Feb-26 16:33N 59°36' E 024°49'0 0.4
2015-Feb-26 15:34N 59°36' E 024°49'6 5.7
2015-Feb-26 14:34N 59°41' E 024°42'7 7.0
2015-Feb-26 13:33N 59°44' E 024°29'1110.1
2015-Feb-26 12:26N 59°40' E 024°08'910.5
2015-Feb-26 11:32N 59°37' E 023°50'1010.4
2015-Feb-26 10:33N 59°34' E 023°31'346 8.9
2015-Feb-24 19:33N 55°38' E 015°37'1110.5
2015-Feb-24 18:32N 55°34' E 015°20'1010.3
2015-Feb-24 17:33N 55°30' E 015°04'1010.1
2015-Feb-24 16:33N 55°26' E 014°47'1010.0
2015-Feb-24 15:33N 55°20' E 014°34'1110.6
2015-Feb-24 14:34N 55°12' E 014°21'1111.0
2015-Feb-24 13:33N 55°10' E 014°02'1211.5
2015-Feb-24 12:33N 55°11' E 013°42'1111.5
2015-Feb-24 11:33N 55°12' E 013°22'1211.7
2015-Feb-24 10:33N 55°13' E 013°01'1110.9
2015-Feb-24 09:34N 55°17' E 012°43'9 8.9
2015-Feb-24 08:34N 55°25' E 012°40'9 8.6
2015-Feb-24 07:34N 55°34' E 012°42'1111.0
2015-Feb-24 06:33N 55°45' E 012°41'1111.5
2015-Feb-24 05:33N 55°56' E 012°39'1110.7
2015-Feb-24 04:33N 56°06' E 012°32'8 7.7
2015-Feb-24 03:33N 56°11' E 012°21'1010.1
2015-Feb-24 02:33N 56°17' E 012°06'9 8.8
2015-Feb-24 01:33N 56°25' E 012°01'9 9.0
2015-Feb-24 00:34N 56°34' E 011°57'9 9.1
2015-Feb-23 23:34N 56°42' E 011°53'9 9.4
2015-Feb-23 22:33N 56°51' E 011°48'9 9.1
2015-Feb-23 21:33N 56°60' E 011°43'9 9.1
2015-Feb-23 20:33N 57°09' E 011°37'9 9.3
2015-Feb-23 19:33N 57°17' E 011°31'9 9.1
2015-Feb-23 18:33N 57°26' E 011°25'9 8.8
2015-Feb-23 17:34N 57°33' E 011°15'10 9.6
2015-Feb-23 16:33N 57°39' E 011°01'1110.7
2015-Feb-23 15:34N 57°43' E 010°43'2 0.8
2015-Feb-23 13:26N 57°42' E 010°41'0 0.0
2015-Feb-23 12:29N 57°42' E 010°41'0 0.0
2015-Feb-23 11:32N 57°42' E 010°41'0 0.0
2015-Feb-23 10:29N 57°42' E 010°41'0 0.0
2015-Feb-23 09:05N 57°42' E 010°41'0 0.0
2015-Feb-23 08:17N 57°42' E 010°41'0 0.0
2015-Feb-23 07:26N 57°42' E 010°41'0 0.0
2015-Feb-23 06:32N 57°42' E 010°41'0 0.1
2015-Feb-23 05:32N 57°42' E 010°41'0 0.0
2015-Feb-23 04:26N 57°42' E 010°41'0 0.0
2015-Feb-23 03:32N 57°42' E 010°41'0 0.0
2015-Feb-23 02:32N 57°42' E 010°41'0 0.0
2015-Feb-23 01:32N 57°42' E 010°41'0 0.0
2015-Feb-23 00:32N 57°42' E 010°41'0 0.0
2015-Feb-22 23:32N 57°42' E 010°41'0 0.0
2015-Feb-22 22:23N 57°42' E 010°41'0 0.0
2015-Feb-22 21:14N 57°42' E 010°41'0 0.0
2015-Feb-22 20:23N 57°42' E 010°41'0 0.0
2015-Feb-22 19:29N 57°42' E 010°41'0 0.0
2015-Feb-22 18:32N 57°42' E 010°41'0 0.0
2015-Feb-22 17:32N 57°42' E 010°41'0 0.1
2015-Feb-22 16:29N 57°42' E 010°41'0 0.1
2015-Feb-22 15:29N 57°42' E 010°41'0 0.0
2015-Feb-22 14:26N 57°42' E 010°42'0 0.0
2015-Feb-22 13:26N 57°42' E 010°42'0 0.0
2015-Feb-22 11:32N 57°42' E 010°42'0 0.0
2015-Feb-22 10:32N 57°42' E 010°42'0 0.0
2015-Feb-22 09:32N 57°42' E 010°41'0 0.1
2015-Feb-22 08:29N 57°42' E 010°41'0 0.0
2015-Feb-22 07:26N 57°42' E 010°41'0 0.0
2015-Feb-22 06:32N 57°42' E 010°41'0 0.0
2015-Feb-22 05:32N 57°42' E 010°41'0 0.0
2015-Feb-22 04:32N 57°42' E 010°41'0 0.0
2015-Feb-22 03:23N 57°42' E 010°41'0 0.0
2015-Feb-22 02:32N 57°42' E 010°41'0 0.0
2015-Feb-22 01:23N 57°42' E 010°41'0 0.0
2015-Feb-22 00:32N 57°42' E 010°41'0 0.0
2015-Feb-21 23:20N 57°42' E 010°41'0 0.0
2015-Feb-21 22:32N 57°42' E 010°41'0 0.0
2015-Feb-21 21:29N 57°42' E 010°41'0 0.0
2015-Feb-21 20:32N 57°42' E 010°41'0 0.0
2015-Feb-21 19:32N 57°42' E 010°41'0 0.1
2015-Feb-21 18:23N 57°41' E 010°41'0 0.0
2015-Feb-21 17:23N 57°41' E 010°41'0 0.1
2015-Feb-21 16:32N 57°42' E 010°41'0 0.0
2015-Feb-21 15:29N 57°42' E 010°41'0 0.0
2015-Feb-21 14:26N 57°42' E 010°41'0 0.0
2015-Feb-21 13:29N 57°42' E 010°41'0 0.0
2015-Feb-21 12:32N 57°42' E 010°41'0 0.0
2015-Feb-21 11:26N 57°42' E 010°41'0 0.0
2015-Feb-21 10:26N 57°42' E 010°41'0 0.0
2015-Feb-21 09:14N 57°42' E 010°41'0 0.0
2015-Feb-21 08:26N 57°42' E 010°41'0 0.0
2015-Feb-21 07:20N 57°42' E 010°41'0 0.0
2015-Feb-21 06:23N 57°42' E 010°41'0 0.0
2015-Feb-21 05:32N 57°42' E 010°41'0 0.0
2015-Feb-21 04:29N 57°42' E 010°41'0 0.0
2015-Feb-21 02:32N 57°42' E 010°41'0 0.0
2015-Feb-21 01:11N 57°42' E 010°41'0 0.0
2015-Feb-21 00:26N 57°42' E 010°41'0 0.0
2015-Feb-20 23:32N 57°42' E 010°41'0 0.0
2015-Feb-20 22:26N 57°42' E 010°41'0 0.0
2015-Feb-20 21:05N 57°42' E 010°41'0 0.0
2015-Feb-20 20:17N 57°42' E 010°41'0 0.0
2015-Feb-20 19:32N 57°42' E 010°41'0 0.0
2015-Feb-20 18:32N 57°42' E 010°41'0 0.0
2015-Feb-20 17:33N 57°42' E 010°41'0 0.0
2015-Feb-20 16:33N 57°42' E 010°41'0 0.0
2015-Feb-20 15:33N 57°42' E 010°41'0 0.0
2015-Feb-20 14:27N 57°42' E 010°41'0 0.0
2015-Feb-20 12:18N 57°42' E 010°41'0 0.0
2015-Feb-20 11:21N 57°42' E 010°41'0 0.0
2015-Feb-20 09:27N 57°42' E 010°41'0 0.0
2015-Feb-20 08:18N 57°42' E 010°41'0 0.0
2015-Feb-20 07:33N 57°42' E 010°41'0 0.0
2015-Feb-20 06:12N 57°42' E 010°41'0 0.0
2015-Feb-20 05:12N 57°42' E 010°41'0 0.0
2015-Feb-20 04:30N 57°42' E 010°41'0 0.0
2015-Feb-20 03:33N 57°42' E 010°41'0 0.0
2015-Feb-20 02:06N 57°42' E 010°41'0 0.0
2015-Feb-20 01:33N 57°42' E 010°41'0 0.0
2015-Feb-20 00:31N 57°42' E 010°41'0 0.0
2015-Feb-19 23:27N 57°42' E 010°41'0 0.0
2015-Feb-19 22:27N 57°42' E 010°41'0 0.0
2015-Feb-19 21:27N 57°42' E 010°41'0 0.0
2015-Feb-19 20:18N 57°42' E 010°41'0 0.0
2015-Feb-19 19:21N 57°42' E 010°41'0 0.0
2015-Feb-19 18:27N 57°42' E 010°41'0 0.0
2015-Feb-19 15:33N 57°42' E 010°41'0 0.0
2015-Feb-19 14:21N 57°42' E 010°41'0 0.0
2015-Feb-19 13:33N 57°42' E 010°41'0 0.0
2015-Feb-19 12:33N 57°42' E 010°41'0 0.0
2015-Feb-19 11:30N 57°42' E 010°42'0 0.0
2015-Feb-19 10:30N 57°42' E 010°41'0 0.0
2015-Feb-19 09:33N 57°42' E 010°41'0 0.0
2015-Feb-19 08:24N 57°42' E 010°41'0 0.1
2015-Feb-19 07:33N 57°42' E 010°41'0 0.0
2015-Feb-19 06:30N 57°42' E 010°41'0 0.0
2015-Feb-19 05:27N 57°42' E 010°41'0 0.0
2015-Feb-19 04:21N 57°42' E 010°41'0 0.0
2015-Feb-19 03:30N 57°42' E 010°41'0 0.0
2015-Feb-19 02:30N 57°42' E 010°41'0 0.0
2015-Feb-19 01:30N 57°42' E 010°41'0 0.0
2015-Feb-19 00:27N 57°42' E 010°41'0 0.0
2015-Feb-18 23:30N 57°42' E 010°41'0 0.0
2015-Feb-18 22:33N 57°42' E 010°41'0 0.0
2015-Feb-18 21:30N 57°42' E 010°41'0 0.0
2015-Feb-18 20:31N 57°42' E 010°41'0 0.0
2015-Feb-18 19:19N 57°42' E 010°41'0 0.0
2015-Feb-18 18:31N 57°42' E 010°41'0 0.0
2015-Feb-18 17:33N 57°42' E 010°41'0 0.0
2015-Feb-18 16:27N 57°42' E 010°41'0 0.0
2015-Feb-18 15:30N 57°42' E 010°41'0 0.0
2015-Feb-18 14:33N 57°42' E 010°41'0 0.0
2015-Feb-18 13:24N 57°42' E 010°41'0 0.0
2015-Feb-18 12:30N 57°42' E 010°42'0 0.0
2015-Feb-18 11:33N 57°42' E 010°42'0 0.0
2015-Feb-18 10:21N 57°42' E 010°41'0 0.0
2015-Feb-18 09:21N 57°42' E 010°42'0 0.1
2015-Feb-18 08:33N 57°42' E 010°41'0 0.0
2015-Feb-18 07:27N 57°42' E 010°41'0 0.1
2015-Feb-18 06:27N 57°42' E 010°41'0 0.0
2015-Feb-18 05:33N 57°42' E 010°41'1 0.6
2015-Feb-18 04:33N 57°41' E 010°42'8 7.7
2015-Feb-18 03:33N 57°49' E 010°45'1110.8
2015-Feb-18 02:33N 57°60' E 010°44'1110.5
2015-Feb-18 01:33N 58°10' E 010°42'1010.4
2015-Feb-18 00:33N 58°21' E 010°40'1010.3
2015-Feb-17 23:34N 58°31' E 010°40'1010.2
2015-Feb-17 22:33N 58°41' E 010°39'10 9.6
2015-Feb-17 21:33N 58°51' E 010°38'10 9.5
2015-Feb-17 20:33N 59°00' E 010°39'8 8.5
2015-Feb-17 19:34N 59°09' E 010°38'11 5.7
2015-Feb-17 17:32N 59°20' E 010°31'0 0.0
2015-Feb-17 16:32N 59°20' E 010°31'0 0.0
2015-Feb-17 15:32N 59°20' E 010°31'0 0.0
2015-Feb-17 14:33N 59°20' E 010°31'0 0.0
2015-Feb-17 13:32N 59°20' E 010°31'0 0.0
2015-Feb-17 12:33N 59°20' E 010°31'0 0.0
2015-Feb-17 11:33N 59°20' E 010°31'0 0.0
2015-Feb-17 10:32N 59°20' E 010°31'0 0.0
2015-Feb-17 09:33N 59°20' E 010°31'0 0.0
2015-Feb-17 08:32N 59°20' E 010°31'0 0.0
2015-Feb-17 07:32N 59°20' E 010°31'0 0.0
2015-Feb-17 06:33N 59°20' E 010°31'0 0.0
2015-Feb-17 05:30N 59°20' E 010°31'0 0.0
2015-Feb-17 04:33N 59°20' E 010°31'0 0.0
2015-Feb-17 03:32N 59°20' E 010°31'0 0.0
2015-Feb-17 02:33N 59°20' E 010°31'0 0.0
2015-Feb-17 01:30N 59°20' E 010°31'0 0.0
2015-Feb-17 00:33N 59°20' E 010°31'0 0.0
2015-Feb-16 23:33N 59°20' E 010°31'  
Track history (hours):
 
Tides and Currents Weather Stations Pressure Air Temp Water Temp Dewpoint Dewpoint Depression Visibility Wind Speed Wind Dir Waves Ship Positions

Minerva Astra

Last reported at 2015-Feb-26 23:14 UTC. Time now 2015-Feb-27 16:58 UTC.
Position N 59°30' E 024°58'.

Length 248 m; draft 8.4 m.

Type: Tanker. MMSI: 256703000.

Date/timePositionNaut miles runAvg speedWind from/ knotsBaromVisibWave heightAir tempDewpointWater temp
2015-Feb-26 23:14N 59°30' E 024°58'3 4.9
2015-Feb-26 22:32N 59°33' E 024°55'4 4.3
2015-Feb-26 21:33N 59°36' E 024°49'0 0.0
2015-Feb-26 20:33N 59°36' E 024°49'0 0.1
2015-Feb-26 19:33N 59°36' E 024°49'0 0.0
2015-Feb-26 18:30N 59°36' E 024°49'0 0.0
2015-Feb-26 17:33N 59°36' E 024°49'0 0.0
2015-Feb-26 16:33N 59°36' E 024°49'0 0.4
2015-Feb-26 15:34N 59°36' E 024°49'6 5.7
2015-Feb-26 14:34N 59°41' E 024°42'7 7.0
2015-Feb-26 13:33N 59°44' E 024°29'1110.1
2015-Feb-26 12:26N 59°40' E 024°08'910.5
2015-Feb-26 11:32N 59°37' E 023°50'1010.4
2015-Feb-26 10:33N 59°34' E 023°31'346 8.9
2015-Feb-24 19:33N 55°38' E 015°37'1110.5
2015-Feb-24 18:32N 55°34' E 015°20'1010.3
2015-Feb-24 17:33N 55°30' E 015°04'1010.1
2015-Feb-24 16:33N 55°26' E 014°47'1010.0
2015-Feb-24 15:33N 55°20' E 014°34'1110.6
2015-Feb-24 14:34N 55°12' E 014°21'1111.0
2015-Feb-24 13:33N 55°10' E 014°02'1211.5
2015-Feb-24 12:33N 55°11' E 013°42'1111.5
2015-Feb-24 11:33N 55°12' E 013°22'1211.7
2015-Feb-24 10:33N 55°13' E 013°01'1110.9
2015-Feb-24 09:34N 55°17' E 012°43'9 8.9
2015-Feb-24 08:34N 55°25' E 012°40'9 8.6
2015-Feb-24 07:34N 55°34' E 012°42'1111.0
2015-Feb-24 06:33N 55°45' E 012°41'1111.5
2015-Feb-24 05:33N 55°56' E 012°39'1110.7
2015-Feb-24 04:33N 56°06' E 012°32'8 7.7
2015-Feb-24 03:33N 56°11' E 012°21'1010.1
2015-Feb-24 02:33N 56°17' E 012°06'9 8.8
2015-Feb-24 01:33N 56°25' E 012°01'9 9.0
2015-Feb-24 00:34N 56°34' E 011°57'9 9.1
2015-Feb-23 23:34N 56°42' E 011°53'9 9.4
2015-Feb-23 22:33N 56°51' E 011°48'9 9.1
2015-Feb-23 21:33N 56°60' E 011°43'9 9.1
2015-Feb-23 20:33N 57°09' E 011°37'9 9.3
2015-Feb-23 19:33N 57°17' E 011°31'9 9.1
2015-Feb-23 18:33N 57°26' E 011°25'9 8.8
2015-Feb-23 17:34N 57°33' E 011°15'10 9.6
2015-Feb-23 16:33N 57°39' E 011°01'1110.7
2015-Feb-23 15:34N 57°43' E 010°43'2 0.8
2015-Feb-23 13:26N 57°42' E 010°41'0 0.0
2015-Feb-23 12:29N 57°42' E 010°41'0 0.0
2015-Feb-23 11:32N 57°42' E 010°41'0 0.0
2015-Feb-23 10:29N 57°42' E 010°41'0 0.0
2015-Feb-23 09:05N 57°42' E 010°41'0 0.0
2015-Feb-23 08:17N 57°42' E 010°41'0 0.0
2015-Feb-23 07:26N 57°42' E 010°41'0 0.0
2015-Feb-23 06:32N 57°42' E 010°41'0 0.1
2015-Feb-23 05:32N 57°42' E 010°41'0 0.0
2015-Feb-23 04:26N 57°42' E 010°41'0 0.0
2015-Feb-23 03:32N 57°42' E 010°41'0 0.0
2015-Feb-23 02:32N 57°42' E 010°41'0 0.0
2015-Feb-23 01:32N 57°42' E 010°41'0 0.0
2015-Feb-23 00:32N 57°42' E 010°41'0 0.0
2015-Feb-22 23:32N 57°42' E 010°41'0 0.0
2015-Feb-22 22:23N 57°42' E 010°41'0 0.0
2015-Feb-22 21:14N 57°42' E 010°41'0 0.0
2015-Feb-22 20:23N 57°42' E 010°41'0 0.0
2015-Feb-22 19:29N 57°42' E 010°41'0 0.0
2015-Feb-22 18:32N 57°42' E 010°41'0 0.0
2015-Feb-22 17:32N 57°42' E 010°41'0 0.1
2015-Feb-22 16:29N 57°42' E 010°41'0 0.1
2015-Feb-22 15:29N 57°42' E 010°41'0 0.0
2015-Feb-22 14:26N 57°42' E 010°42'0 0.0
2015-Feb-22 13:26N 57°42' E 010°42'0 0.0
2015-Feb-22 11:32N 57°42' E 010°42'0 0.0
2015-Feb-22 10:32N 57°42' E 010°42'0 0.0
2015-Feb-22 09:32N 57°42' E 010°41'0 0.1
2015-Feb-22 08:29N 57°42' E 010°41'0 0.0
2015-Feb-22 07:26N 57°42' E 010°41'0 0.0
2015-Feb-22 06:32N 57°42' E 010°41'0 0.0
2015-Feb-22 05:32N 57°42' E 010°41'0 0.0
2015-Feb-22 04:32N 57°42' E 010°41'0 0.0
2015-Feb-22 03:23N 57°42' E 010°41'0 0.0
2015-Feb-22 02:32N 57°42' E 010°41'0 0.0
2015-Feb-22 01:23N 57°42' E 010°41'0 0.0
2015-Feb-22 00:32N 57°42' E 010°41'0 0.0
2015-Feb-21 23:20N 57°42' E 010°41'0 0.0
2015-Feb-21 22:32N 57°42' E 010°41'0 0.0
2015-Feb-21 21:29N 57°42' E 010°41'0 0.0
2015-Feb-21 20:32N 57°42' E 010°41'0 0.0
2015-Feb-21 19:32N 57°42' E 010°41'0 0.1
2015-Feb-21 18:23N 57°41' E 010°41'0 0.0
2015-Feb-21 17:23N 57°41' E 010°41'0 0.1
2015-Feb-21 16:32N 57°42' E 010°41'0 0.0
2015-Feb-21 15:29N 57°42' E 010°41'0 0.0
2015-Feb-21 14:26N 57°42' E 010°41'0 0.0
2015-Feb-21 13:29N 57°42' E 010°41'0 0.0
2015-Feb-21 12:32N 57°42' E 010°41'0 0.0
2015-Feb-21 11:26N 57°42' E 010°41'0 0.0
2015-Feb-21 10:26N 57°42' E 010°41'0 0.0
2015-Feb-21 09:14N 57°42' E 010°41'0 0.0
2015-Feb-21 08:26N 57°42' E 010°41'0 0.0
2015-Feb-21 07:20N 57°42' E 010°41'0 0.0
2015-Feb-21 06:23N 57°42' E 010°41'0 0.0
2015-Feb-21 05:32N 57°42' E 010°41'0 0.0
2015-Feb-21 04:29N 57°42' E 010°41'0 0.0
2015-Feb-21 02:32N 57°42' E 010°41'0 0.0
2015-Feb-21 01:11N 57°42' E 010°41'0 0.0
2015-Feb-21 00:26N 57°42' E 010°41'0 0.0
2015-Feb-20 23:32N 57°42' E 010°41'0 0.0
2015-Feb-20 22:26N 57°42' E 010°41'0 0.0
2015-Feb-20 21:05N 57°42' E 010°41'0 0.0
2015-Feb-20 20:17N 57°42' E 010°41'0 0.0
2015-Feb-20 19:32N 57°42' E 010°41'0 0.0
2015-Feb-20 18:32N 57°42' E 010°41'0 0.0
2015-Feb-20 17:33N 57°42' E 010°41'0 0.0
2015-Feb-20 16:33N 57°42' E 010°41'0 0.0
2015-Feb-20 15:33N 57°42' E 010°41'0 0.0
2015-Feb-20 14:27N 57°42' E 010°41'0 0.0
2015-Feb-20 12:18N 57°42' E 010°41'0 0.0
2015-Feb-20 11:21N 57°42' E 010°41'0 0.0
2015-Feb-20 09:27N 57°42' E 010°41'0 0.0
2015-Feb-20 08:18N 57°42' E 010°41'0 0.0
2015-Feb-20 07:33N 57°42' E 010°41'0 0.0
2015-Feb-20 06:12N 57°42' E 010°41'0 0.0
2015-Feb-20 05:12N 57°42' E 010°41'0 0.0
2015-Feb-20 04:30N 57°42' E 010°41'0 0.0
2015-Feb-20 03:33N 57°42' E 010°41'0 0.0
2015-Feb-20 02:06N 57°42' E 010°41'0 0.0
2015-Feb-20 01:33N 57°42' E 010°41'0 0.0
2015-Feb-20 00:31N 57°42' E 010°41'0 0.0
2015-Feb-19 23:27N 57°42' E 010°41'0 0.0
2015-Feb-19 22:27N 57°42' E 010°41'0 0.0
2015-Feb-19 21:27N 57°42' E 010°41'0 0.0
2015-Feb-19 20:18N 57°42' E 010°41'0 0.0
2015-Feb-19 19:21N 57°42' E 010°41'0 0.0
2015-Feb-19 18:27N 57°42' E 010°41'0 0.0
2015-Feb-19 15:33N 57°42' E 010°41'0 0.0
2015-Feb-19 14:21N 57°42' E 010°41'0 0.0
2015-Feb-19 13:33N 57°42' E 010°41'0 0.0
2015-Feb-19 12:33N 57°42' E 010°41'0 0.0
2015-Feb-19 11:30N 57°42' E 010°42'0 0.0
2015-Feb-19 10:30N 57°42' E 010°41'0 0.0
2015-Feb-19 09:33N 57°42' E 010°41'0 0.0
2015-Feb-19 08:24N 57°42' E 010°41'0 0.1
2015-Feb-19 07:33N 57°42' E 010°41'0 0.0
2015-Feb-19 06:30N 57°42' E 010°41'0 0.0
2015-Feb-19 05:27N 57°42' E 010°41'0 0.0
2015-Feb-19 04:21N 57°42' E 010°41'0 0.0
2015-Feb-19 03:30N 57°42' E 010°41'0 0.0
2015-Feb-19 02:30N 57°42' E 010°41'0 0.0
2015-Feb-19 01:30N 57°42' E 010°41'0 0.0
2015-Feb-19 00:27N 57°42' E 010°41'0 0.0
2015-Feb-18 23:30N 57°42' E 010°41'0 0.0
2015-Feb-18 22:33N 57°42' E 010°41'0 0.0
2015-Feb-18 21:30N 57°42' E 010°41'0 0.0
2015-Feb-18 20:31N 57°42' E 010°41'0 0.0
2015-Feb-18 19:19N 57°42' E 010°41'0 0.0
2015-Feb-18 18:31N 57°42' E 010°41'0 0.0
2015-Feb-18 17:33N 57°42' E 010°41'0 0.0
2015-Feb-18 16:27N 57°42' E 010°41'0 0.0
2015-Feb-18 15:30N 57°42' E 010°41'0 0.0
2015-Feb-18 14:33N 57°42' E 010°41'0 0.0
2015-Feb-18 13:24N 57°42' E 010°41'0 0.0
2015-Feb-18 12:30N 57°42' E 010°42'0 0.0
2015-Feb-18 11:33N 57°42' E 010°42'0 0.0
2015-Feb-18 10:21N 57°42' E 010°41'0 0.0
2015-Feb-18 09:21N 57°42' E 010°42'0 0.1
2015-Feb-18 08:33N 57°42' E 010°41'0 0.0
2015-Feb-18 07:27N 57°42' E 010°41'0 0.1
2015-Feb-18 06:27N 57°42' E 010°41'0 0.0
2015-Feb-18 05:33N 57°42' E 010°41'1 0.6
2015-Feb-18 04:33N 57°41' E 010°42'8 7.7
2015-Feb-18 03:33N 57°49' E 010°45'1110.8
2015-Feb-18 02:33N 57°60' E 010°44'1110.5
2015-Feb-18 01:33N 58°10' E 010°42'1010.4
2015-Feb-18 00:33N 58°21' E 010°40'1010.3
2015-Feb-17 23:34N 58°31' E 010°40'1010.2
2015-Feb-17 22:33N 58°41' E 010°39'10 9.6
2015-Feb-17 21:33N 58°51' E 010°38'10 9.5
2015-Feb-17 20:33N 59°00' E 010°39'8 8.5
2015-Feb-17 19:34N 59°09' E 010°38'11 5.7
2015-Feb-17 17:32N 59°20' E 010°31'0 0.0
2015-Feb-17 16:32N 59°20' E 010°31'0 0.0
2015-Feb-17 15:32N 59°20' E 010°31'0 0.0
2015-Feb-17 14:33N 59°20' E 010°31'0 0.0
2015-Feb-17 13:32N 59°20' E 010°31'0 0.0
2015-Feb-17 12:33N 59°20' E 010°31'0 0.0
2015-Feb-17 11:33N 59°20' E 010°31'0 0.0
2015-Feb-17 10:32N 59°20' E 010°31'0 0.0
2015-Feb-17 09:33N 59°20' E 010°31'0 0.0
2015-Feb-17 08:32N 59°20' E 010°31'0 0.0
2015-Feb-17 07:32N 59°20' E 010°31'0 0.0
2015-Feb-17 06:33N 59°20' E 010°31'0 0.0
2015-Feb-17 05:30N 59°20' E 010°31'0 0.0
2015-Feb-17 04:33N 59°20' E 010°31'0 0.0
2015-Feb-17 03:32N 59°20' E 010°31'0 0.0
2015-Feb-17 02:33N 59°20' E 010°31'0 0.0
2015-Feb-17 01:30N 59°20' E 010°31'0 0.0
2015-Feb-17 00:33N 59°20' E 010°31'0 0.0
2015-Feb-16 23:33N 59°20' E 010°31'  

Dump ship's entire track history